Time;durP1;ratioP1;P1;durP2;ratioP2;P2;SDS_P1;SDS_P2;PMS_P1;PMS_P2;Temp;Humidity;BMP_temperature;BMP_pressure;BME280_temperature;BME280_humidity;BME280_pressure;Samples;Min_cycle;Max_cycle;Signal;HPM_P1;HPM_P2
2023/11/24 00:00:48;;;;;;;8.20;5.70;;;8.20;99.90;;;;;;5037856;28;20928;-67
2023/11/24 00:03:14;;;;;;;7.87;6.07;;;8.20;99.90;;;;;;5039952;28;20492;-68
2023/11/24 00:05:40;;;;;;;7.57;6.30;;;8.20;99.90;;;;;;5037821;28;20188;-67
2023/11/24 00:08:05;;;;;;;8.67;5.93;;;8.20;99.90;;;;;;5043122;28;20211;-68
2023/11/24 00:10:31;;;;;;;7.97;6.30;;;8.30;99.90;;;;;;5032579;28;20180;-67
2023/11/24 00:12:57;;;;;;;9.20;7.00;;;8.30;99.90;;;;;;5039324;28;20226;-67
2023/11/24 00:15:22;;;;;;;7.53;5.33;;;8.30;99.90;;;;;;5041603;28;20310;-67
2023/11/24 00:17:50;;;;;;;8.13;5.67;;;8.30;99.90;;;;;;5038458;28;20188;-67
2023/11/24 00:20:16;;;;;;;7.50;6.30;;;8.20;99.90;;;;;;5042457;28;20430;-68
2023/11/24 00:22:42;;;;;;;7.70;5.10;;;8.20;99.90;;;;;;5040612;28;20477;-67
2023/11/24 00:25:09;;;;;;;9.53;5.83;;;8.20;99.90;;;;;;5039225;28;20468;-67
2023/11/24 00:27:35;;;;;;;7.70;5.13;;;8.20;99.90;;;;;;5037556;28;20501;-67
2023/11/24 00:30:07;;;;;;;13.03;6.40;;;8.20;99.90;;;;;;5038560;28;20434;-67
2023/11/24 00:32:33;;;;;;;6.53;5.37;;;8.30;99.90;;;;;;5039340;28;20487;-67
2023/11/24 00:34:58;;;;;;;9.00;6.07;;;8.30;99.90;;;;;;5030096;28;20438;-66
2023/11/24 00:37:24;;;;;;;7.57;5.90;;;8.30;99.90;;;;;;5027633;28;20886;-66
2023/11/24 00:39:50;;;;;;;9.97;6.10;;;8.40;99.90;;;;;;5031733;28;20194;-66
2023/11/24 00:42:16;;;;;;;12.40;5.80;;;8.40;99.90;;;;;;5029876;28;20263;-67
2023/11/24 00:44:42;;;;;;;14.07;5.60;;;8.50;99.90;;;;;;5026730;28;20314;-65
2023/11/24 00:47:07;;;;;;;8.30;5.50;;;8.50;99.90;;;;;;5027668;28;20435;-67
2023/11/24 00:49:34;;;;;;;6.83;5.57;;;8.60;99.90;;;;;;5032971;28;20321;-67
2023/11/24 00:52:00;;;;;;;9.50;6.10;;;8.60;99.90;;;;;;5029691;28;20176;-65
2023/11/24 00:54:26;;;;;;;7.00;5.20;;;8.60;99.90;;;;;;5027169;28;20473;-66
2023/11/24 00:56:51;;;;;;;6.13;5.20;;;8.60;99.90;;;;;;5025711;28;20889;-66
2023/11/24 00:59:17;;;;;;;7.73;5.70;;;8.60;99.90;;;;;;5032553;28;20429;-66
2023/11/24 01:01:42;;;;;;;6.57;4.80;;;8.60;99.90;;;;;;5026840;28;20184;-66
2023/11/24 01:04:08;;;;;;;10.30;6.10;;;8.60;99.90;;;;;;5030858;28;20214;-66
2023/11/24 01:06:33;;;;;;;8.53;5.27;;;8.60;99.90;;;;;;5027762;28;20208;-65
2023/11/24 01:09:00;;;;;;;9.33;5.60;;;8.60;99.90;;;;;;5031208;28;20277;-66
2023/11/24 01:11:26;;;;;;;7.00;5.10;;;8.70;99.90;;;;;;5028592;28;20186;-66
2023/11/24 01:13:51;;;;;;;6.93;5.00;;;8.70;99.90;;;;;;5025509;28;20454;-66
2023/11/24 01:16:17;;;;;;;6.53;5.30;;;8.80;99.90;;;;;;5029782;28;20183;-66
2023/11/24 01:18:43;;;;;;;24.47;5.90;;;8.80;99.90;;;;;;5026039;28;20184;-66
2023/11/24 01:21:09;;;;;;;5.57;4.70;;;8.80;99.90;;;;;;5029843;28;20184;-66
2023/11/24 01:23:35;;;;;;;6.33;4.80;;;8.70;99.90;;;;;;5029660;28;20224;-66
2023/11/24 01:26:02;;;;;;;5.97;4.47;;;8.70;99.90;;;;;;5033819;28;20461;-67
2023/11/24 01:28:28;;;;;;;6.70;5.07;;;8.70;99.90;;;;;;5038113;28;20222;-66
2023/11/24 01:30:54;;;;;;;5.97;4.83;;;8.70;99.90;;;;;;5036111;28;20423;-66
2023/11/24 01:33:19;;;;;;;5.80;4.70;;;8.80;99.90;;;;;;5040807;28;20960;-67
2023/11/24 01:35:45;;;;;;;6.03;4.20;;;8.90;99.90;;;;;;5034751;28;20632;-66
2023/11/24 01:38:11;;;;;;;6.23;4.90;;;9.00;99.90;;;;;;5041320;28;20180;-67
2023/11/24 01:40:37;;;;;;;6.70;3.87;;;9.10;99.90;;;;;;5043536;28;20925;-67
2023/11/24 01:43:03;;;;;;;5.20;4.47;;;9.10;99.90;;;;;;5031722;28;20208;-67
2023/11/24 01:45:29;;;;;;;6.40;4.43;;;9.10;99.90;;;;;;5040094;28;20195;-66
2023/11/24 01:47:54;;;;;;;5.37;3.93;;;9.10;99.90;;;;;;5041611;28;20516;-67
2023/11/24 01:50:20;;;;;;;5.13;4.10;;;9.10;99.90;;;;;;5044234;28;20187;-67
2023/11/24 01:52:48;;;;;;;5.23;3.90;;;9.20;99.90;;;;;;5037776;28;20446;-67
2023/11/24 01:55:16;;;;;;;4.80;4.00;;;9.10;99.90;;;;;;5036526;28;20493;-67
2023/11/24 01:57:42;;;;;;;5.33;4.23;;;9.20;99.90;;;;;;5039077;28;20430;-67
2023/11/24 02:00:13;;;;;;;7.13;5.27;;;9.20;99.90;;;;;;5036150;28;20442;-67
2023/11/24 02:02:40;;;;;;;5.50;4.23;;;9.20;99.90;;;;;;5039433;28;20543;-66
2023/11/24 02:05:06;;;;;;;6.90;4.50;;;9.20;99.90;;;;;;5036007;28;20507;-66
2023/11/24 02:07:33;;;;;;;5.60;4.10;;;9.10;99.90;;;;;;5037741;28;20426;-66
2023/11/24 02:09:59;;;;;;;6.47;5.20;;;9.10;99.90;;;;;;5037219;28;20419;-66
2023/11/24 02:12:25;;;;;;;5.40;4.07;;;9.00;99.90;;;;;;5034098;28;20897;-67
2023/11/24 02:14:50;;;;;;;6.70;3.93;;;9.00;99.90;;;;;;5035708;28;20497;-67
2023/11/24 02:17:16;;;;;;;5.23;4.00;;;9.00;99.90;;;;;;5040353;28;20742;-67
2023/11/24 02:19:43;;;;;;;6.03;4.43;;;9.00;99.90;;;;;;5038991;28;20893;-67
2023/11/24 02:22:08;;;;;;;4.40;3.53;;;9.00;99.90;;;;;;5036861;28;20212;-67
2023/11/24 02:24:34;;;;;;;6.10;4.40;;;9.00;99.90;;;;;;5035229;28;20493;-67
2023/11/24 02:27:00;;;;;;;5.57;3.50;;;9.00;99.90;;;;;;5039821;28;22152;-67
2023/11/24 02:29:29;;;;;;;8.57;4.13;;;9.00;99.90;;;;;;5040402;28;20207;-67
2023/11/24 02:31:55;;;;;;;6.20;3.90;;;9.10;99.90;;;;;;5036542;28;20180;-67
2023/11/24 02:34:20;;;;;;;5.70;3.90;;;9.10;99.90;;;;;;5036004;28;21151;-66
2023/11/24 02:36:46;;;;;;;5.27;4.77;;;9.00;99.90;;;;;;5036834;28;20197;-67
2023/11/24 02:39:12;;;;;;;4.53;3.50;;;9.00;99.90;;;;;;5038756;28;20184;-67
2023/11/24 02:41:38;;;;;;;5.50;4.27;;;9.00;99.90;;;;;;5037324;28;20411;-67
2023/11/24 02:44:04;;;;;;;5.07;4.00;;;9.00;99.90;;;;;;5034900;28;20227;-67
2023/11/24 02:46:30;;;;;;;7.80;4.30;;;9.00;99.90;;;;;;5031588;28;20510;-67
2023/11/24 02:48:56;;;;;;;7.40;4.27;;;8.90;99.90;;;;;;5033494;28;20253;-67
2023/11/24 02:51:24;;;;;;;4.90;4.07;;;8.90;99.90;;;;;;5040099;28;20415;-67
2023/11/24 02:53:50;;;;;;;7.37;4.10;;;8.90;99.90;;;;;;5033760;28;20463;-67
2023/11/24 02:56:15;;;;;;;6.17;4.30;;;8.80;99.90;;;;;;5036385;28;21352;-67
2023/11/24 02:58:41;;;;;;;6.53;4.80;;;8.80;99.90;;;;;;5034105;28;20653;-67
2023/11/24 03:01:07;;;;;;;5.57;4.73;;;8.80;99.90;;;;;;5031030;28;20180;-67
2023/11/24 03:03:33;;;;;;;4.57;3.93;;;8.70;99.90;;;;;;5037509;28;20204;-67
2023/11/24 03:06:05;;;;;;;6.80;4.27;;;8.70;99.90;;;;;;5034608;28;20194;-67
2023/11/24 03:08:31;;;;;;;6.07;4.10;;;8.60;99.90;;;;;;5037826;28;20458;-67
2023/11/24 03:10:57;;;;;;;5.13;4.10;;;8.70;99.90;;;;;;5058966;28;20419;-67
2023/11/24 03:13:23;;;;;;;6.23;4.37;;;8.70;99.90;;;;;;5040597;28;20511;-67
2023/11/24 03:15:50;;;;;;;7.60;4.00;;;8.60;99.90;;;;;;5030353;28;20188;-67
2023/11/24 03:18:16;;;;;;;6.80;4.83;;;8.50;99.90;;;;;;5039137;28;20414;-67
2023/11/24 03:20:42;;;;;;;6.90;5.33;;;8.40;99.90;;;;;;5044184;28;20425;-66
2023/11/24 03:23:08;;;;;;;4.47;4.00;;;8.40;99.90;;;;;;5043226;28;20539;-67
2023/11/24 03:25:34;;;;;;;6.17;4.57;;;8.40;99.90;;;;;;5042468;28;20512;-66
2023/11/24 03:28:00;;;;;;;4.83;4.07;;;8.40;99.90;;;;;;5044162;28;20211;-67
2023/11/24 03:30:27;;;;;;;4.83;3.80;;;8.40;99.90;;;;;;5050845;28;20937;-66
2023/11/24 03:32:52;;;;;;;5.00;4.20;;;8.40;99.90;;;;;;5038802;28;20565;-65
2023/11/24 03:35:18;;;;;;;5.60;4.10;;;8.40;99.90;;;;;;5044440;28;20505;-65
2023/11/24 03:37:44;;;;;;;6.53;4.60;;;8.40;99.90;;;;;;5044506;28;20457;-65
2023/11/24 03:40:10;;;;;;;5.63;4.47;;;8.40;99.90;;;;;;5041577;28;20684;-65
2023/11/24 03:42:36;;;;;;;5.90;4.60;;;8.40;99.90;;;;;;5043547;28;20661;-65
2023/11/24 03:45:02;;;;;;;7.80;4.50;;;8.40;99.90;;;;;;5041267;28;20444;-65
2023/11/24 03:47:30;;;;;;;5.80;4.70;;;8.40;99.90;;;;;;5044031;28;20272;-65
2023/11/24 03:49:57;;;;;;;6.50;4.80;;;8.50;99.90;;;;;;5039899;28;20509;-65
2023/11/24 03:52:23;;;;;;;6.17;4.83;;;8.60;99.90;;;;;;5042977;28;20869;-65
2023/11/24 03:54:50;;;;;;;6.47;4.17;;;8.60;99.90;;;;;;5041461;28;20430;-66
2023/11/24 03:57:15;;;;;;;6.50;4.30;;;8.60;99.90;;;;;;5044395;28;20642;-66
2023/11/24 03:59:41;;;;;;;5.50;4.60;;;8.60;99.90;;;;;;5040690;28;20493;-66
2023/11/24 04:02:07;;;;;;;5.90;4.20;;;8.60;99.90;;;;;;5043558;28;20184;-67
2023/11/24 04:04:32;;;;;;;6.20;3.93;;;8.60;99.90;;;;;;5045040;28;20922;-66
2023/11/24 04:06:58;;;;;;;5.37;4.67;;;8.70;99.90;;;;;;5044530;28;20180;-66
2023/11/24 04:09:25;;;;;;;4.87;3.97;;;8.60;99.90;;;;;;5045748;28;20203;-66
2023/11/24 04:11:51;;;;;;;5.03;3.97;;;8.60;99.90;;;;;;5042284;28;20226;-66
2023/11/24 04:14:17;;;;;;;6.60;4.70;;;8.60;99.90;;;;;;5046868;28;20832;-66
2023/11/24 04:16:42;;;;;;;4.87;4.03;;;8.60;99.90;;;;;;5037394;28;20434;-65
2023/11/24 04:19:08;;;;;;;7.07;4.30;;;8.60;99.90;;;;;;5044205;28;20180;-66
2023/11/24 04:21:34;;;;;;;4.53;3.60;;;8.70;99.90;;;;;;5045420;28;20589;-67
2023/11/24 04:23:59;;;;;;;5.77;4.50;;;8.70;99.90;;;;;;5040698;28;20783;-66
2023/11/24 04:26:25;;;;;;;5.50;3.70;;;8.70;99.90;;;;;;5045765;28;20418;-68
2023/11/24 04:28:51;;;;;;;5.03;3.87;;;8.70;99.90;;;;;;5044881;28;20204;-68
2023/11/24 04:31:16;;;;;;;4.27;3.60;;;8.80;99.90;;;;;;5041822;28;20403;-67
2023/11/24 04:33:42;;;;;;;5.00;3.70;;;8.80;99.90;;;;;;5040610;28;20684;-67
2023/11/24 04:36:08;;;;;;;4.07;3.03;;;8.80;99.90;;;;;;5038288;28;20638;-65
2023/11/24 04:38:33;;;;;;;7.17;3.10;;;8.70;99.90;;;;;;5047679;28;20734;-65
2023/11/24 04:41:01;;;;;;;6.40;4.13;;;8.80;99.90;;;;;;5042059;28;20506;-65
2023/11/24 04:43:27;;;;;;;5.57;3.77;;;8.80;99.90;;;;;;5043553;28;20211;-65
2023/11/24 04:45:53;;;;;;;4.40;3.33;;;8.80;99.90;;;;;;5040129;28;20418;-65
2023/11/24 04:48:18;;;;;;;4.50;3.43;;;8.70;99.90;;;;;;5042340;28;20691;-65
2023/11/24 04:50:44;;;;;;;5.10;3.50;;;8.70;99.90;;;;;;5041789;28;20179;-65
2023/11/24 04:53:09;;;;;;;4.93;4.00;;;8.70;99.90;;;;;;5040813;28;20202;-67
2023/11/24 04:55:35;;;;;;;3.80;3.10;;;8.80;99.90;;;;;;5041455;28;20204;-67
2023/11/24 04:58:01;;;;;;;5.27;3.20;;;8.80;99.90;;;;;;5039740;28;20176;-68
2023/11/24 05:00:26;;;;;;;6.67;3.83;;;8.80;99.90;;;;;;5037785;28;20236;-67
2023/11/24 05:02:53;;;;;;;3.70;3.03;;;8.80;99.90;;;;;;5040910;28;20207;-68
2023/11/24 05:05:18;;;;;;;4.67;3.50;;;8.80;99.90;;;;;;5040571;28;20746;-67
2023/11/24 05:07:44;;;;;;;4.67;3.63;;;8.80;99.90;;;;;;5041195;28;20544;-67
2023/11/24 05:10:10;;;;;;;3.50;3.17;;;8.80;99.90;;;;;;5042672;28;20246;-67
2023/11/24 05:12:35;;;;;;;5.07;3.50;;;8.80;99.90;;;;;;5041298;28;20257;-67
2023/11/24 05:15:08;;;;;;;4.30;3.43;;;8.80;99.90;;;;;;5044834;28;20222;-68
2023/11/24 05:17:35;;;;;;;4.50;3.43;;;8.90;99.90;;;;;;5037346;28;20187;-67
2023/11/24 05:20:01;;;;;;;4.40;3.27;;;8.90;99.90;;;;;;5038300;28;20451;-67
2023/11/24 05:22:26;;;;;;;5.03;3.60;;;9.00;99.90;;;;;;5040212;28;20431;-67
2023/11/24 05:24:52;;;;;;;4.57;3.83;;;9.00;99.90;;;;;;5045432;28;20414;-67
2023/11/24 05:27:17;;;;;;;3.90;2.50;;;9.10;99.90;;;;;;5039118;28;20226;-67
2023/11/24 05:29:43;;;;;;;3.80;2.80;;;9.10;99.90;;;;;;5047850;28;20227;-67
2023/11/24 05:32:09;;;;;;;3.10;2.20;;;9.10;99.90;;;;;;5040554;28;20547;-67
2023/11/24 05:34:35;;;;;;;3.50;2.23;;;9.00;99.90;;;;;;5044057;28;20587;-67
2023/11/24 05:37:05;;;;;;;2.43;1.80;;;9.00;99.90;;;;;;5046792;28;20183;-67
2023/11/24 05:39:31;;;;;;;2.60;1.93;;;9.00;99.90;;;;;;5043857;28;20418;-67
2023/11/24 05:41:58;;;;;;;2.87;2.27;;;9.00;99.90;;;;;;5041099;28;20932;-66
2023/11/24 05:44:24;;;;;;;3.23;2.20;;;9.10;99.90;;;;;;5038979;28;20897;-66
2023/11/24 05:46:49;;;;;;;2.70;1.80;;;9.00;99.90;;;;;;5045755;28;20467;-66
2023/11/24 05:49:15;;;;;;;3.80;1.70;;;8.90;99.90;;;;;;5041662;28;20240;-66
2023/11/24 05:51:41;;;;;;;4.30;1.73;;;9.00;99.90;;;;;;5043377;28;20228;-66
2023/11/24 05:54:06;;;;;;;5.33;2.00;;;9.00;99.90;;;;;;5043706;28;20232;-66
2023/11/24 05:56:32;;;;;;;2.80;1.73;;;9.10;99.90;;;;;;5036910;28;20221;-66
2023/11/24 05:58:57;;;;;;;3.20;1.57;;;9.20;99.90;;;;;;5040470;28;20179;-66
2023/11/24 06:01:23;;;;;;;2.30;1.53;;;9.20;99.90;;;;;;5034390;28;20184;-66
2023/11/24 06:03:49;;;;;;;3.27;1.80;;;9.30;99.90;;;;;;5036838;28;20215;-67
2023/11/24 06:06:14;;;;;;;2.73;1.37;;;9.30;99.90;;;;;;5033086;28;20185;-67
2023/11/24 06:08:40;;;;;;;2.80;1.60;;;9.40;99.90;;;;;;5036113;28;20207;-67
2023/11/24 06:11:05;;;;;;;2.40;1.53;;;9.40;99.90;;;;;;5035636;28;20559;-66
2023/11/24 06:13:32;;;;;;;2.30;1.50;;;9.40;99.90;;;;;;5034641;28;20226;-66
2023/11/24 06:15:58;;;;;;;2.73;1.50;;;9.50;99.90;;;;;;5033010;28;20253;-66
2023/11/24 06:18:24;;;;;;;2.60;1.50;;;9.60;99.90;;;;;;5037361;28;20435;-67
2023/11/24 06:20:50;;;;;;;3.10;1.60;;;9.50;99.90;;;;;;5036520;28;20194;-67
2023/11/24 06:23:15;;;;;;;2.40;1.70;;;9.50;99.90;;;;;;5037345;28;20579;-67
2023/11/24 06:25:41;;;;;;;3.13;1.93;;;9.50;99.90;;;;;;5040016;28;20184;-67
2023/11/24 06:28:06;;;;;;;3.70;1.80;;;9.50;99.90;;;;;;5036727;28;20779;-66
2023/11/24 06:30:32;;;;;;;3.80;2.70;;;9.50;99.90;;;;;;5036351;28;20200;-67
2023/11/24 06:32:57;;;;;;;4.00;2.70;;;9.50;99.90;;;;;;5034640;28;20591;-67
2023/11/24 06:35:24;;;;;;;3.70;2.10;;;9.50;99.90;;;;;;5039443;28;20589;-67
2023/11/24 06:37:50;;;;;;;5.27;2.57;;;9.50;99.90;;;;;;5038318;28;20207;-67
2023/11/24 06:40:15;;;;;;;3.10;2.10;;;9.50;99.90;;;;;;5038755;28;20488;-66
2023/11/24 06:42:42;;;;;;;4.03;2.30;;;9.50;99.90;;;;;;5036629;28;20575;-65
2023/11/24 06:45:09;;;;;;;5.00;2.23;;;9.50;99.90;;;;;;5029915;28;20179;-66
2023/11/24 06:47:37;;;;;;;3.63;2.30;;;9.40;99.90;;;;;;5034398;28;20423;-66
2023/11/24 06:50:03;;;;;;;3.13;2.13;;;9.40;99.90;;;;;;5040283;28;20422;-66
2023/11/24 06:52:28;;;;;;;8.63;5.73;;;9.40;99.90;;;;;;5039462;28;20495;-66
2023/11/24 06:54:54;;;;;;;4.30;2.13;;;9.40;99.90;;;;;;5039796;28;20530;-66
2023/11/24 06:57:19;;;;;;;4.07;1.93;;;9.50;99.90;;;;;;5040415;28;20629;-66
2023/11/24 06:59:45;;;;;;;4.73;2.10;;;9.50;99.90;;;;;;5037914;28;20202;-66
2023/11/24 07:02:10;;;;;;;2.33;1.80;;;9.50;99.90;;;;;;5035576;28;20223;-66
2023/11/24 07:04:39;;;;;;;2.90;2.20;;;9.50;99.90;;;;;;5039221;28;20203;-67
2023/11/24 07:07:05;;;;;;;4.60;2.23;;;9.50;99.90;;;;;;5038375;28;20188;-67
2023/11/24 07:09:31;;;;;;;4.73;2.07;;;9.50;99.90;;;;;;5039426;28;20533;-67
2023/11/24 07:11:56;;;;;;;2.50;1.70;;;9.50;99.90;;;;;;5039254;28;20181;-65
2023/11/24 07:14:22;;;;;;;3.13;1.93;;;9.50;99.90;;;;;;5040495;28;20276;-65
2023/11/24 07:16:47;;;;;;;4.87;2.57;;;9.50;99.90;;;;;;5036984;28;20757;-66
2023/11/24 07:19:13;;;;;;;6.57;2.60;;;9.50;99.90;;;;;;5039642;28;20187;-66
2023/11/24 07:21:39;;;;;;;6.00;2.67;;;9.50;99.90;;;;;;5035316;28;20227;-66
2023/11/24 07:24:05;;;;;;;3.17;2.30;;;9.50;99.90;;;;;;5041584;28;20220;-66
2023/11/24 07:26:30;;;;;;;3.30;2.20;;;9.50;99.90;;;;;;5042584;28;20566;-66
2023/11/24 07:28:56;;;;;;;6.83;2.80;;;9.50;99.90;;;;;;5039921;28;20459;-66
2023/11/24 07:31:22;;;;;;;4.60;2.57;;;9.40;99.90;;;;;;5036582;28;22116;-66
2023/11/24 07:33:48;;;;;;;6.07;2.47;;;9.40;99.90;;;;;;5038610;28;20231;-66
2023/11/24 07:36:21;;;;;;;3.97;2.30;;;9.30;99.90;;;;;;5040059;28;22457;-67
2023/11/24 07:38:49;;;;;;;6.27;2.73;;;9.20;99.90;;;;;;5041928;28;20426;-67
2023/11/24 07:41:16;;;;;;;4.47;2.50;;;9.20;99.90;;;;;;5039903;28;20414;-67
2023/11/24 07:43:42;;;;;;;7.40;2.63;;;9.10;99.90;;;;;;5039639;28;20469;-67
2023/11/24 07:46:10;;;;;;;6.43;2.27;;;9.10;99.90;;;;;;5037223;28;20437;-68
2023/11/24 07:48:39;;;;;;;3.50;2.10;;;9.10;99.90;;;;;;5034300;28;20960;-67
2023/11/24 07:51:05;;;;;;;14.67;4.13;;;9.10;99.90;;;;;;5043004;28;20426;-67
2023/11/24 07:53:32;;;;;;;4.23;2.30;;;9.20;99.90;;;;;;5042108;28;20445;-67
2023/11/24 07:55:59;;;;;;;5.43;2.80;;;9.30;99.90;;;;;;5036027;28;20188;-67
2023/11/24 07:58:24;;;;;;;6.70;2.87;;;9.30;99.90;;;;;;5030789;28;20522;-67
2023/11/24 08:00:50;;;;;;;4.33;3.07;;;9.20;99.90;;;;;;5036853;28;20524;-67
2023/11/24 08:03:17;;;;;;;4.00;2.40;;;9.20;99.90;;;;;;5034911;28;20234;-67
2023/11/24 08:05:42;;;;;;;5.37;2.57;;;9.40;99.90;;;;;;5037082;28;20587;-67
2023/11/24 08:08:09;;;;;;;5.33;2.40;;;9.40;99.90;;;;;;5039845;28;20469;-67
2023/11/24 08:10:35;;;;;;;7.40;2.50;;;9.50;99.90;;;;;;5038156;28;21025;-68
2023/11/24 08:13:02;;;;;;;5.50;2.60;;;9.50;99.90;;;;;;5038307;28;20443;-67
2023/11/24 08:15:27;;;;;;;3.80;2.60;;;9.60;99.90;;;;;;5036441;28;20193;-67
2023/11/24 08:17:53;;;;;;;4.77;2.60;;;9.60;99.90;;;;;;5037768;28;20438;-67
2023/11/24 08:20:19;;;;;;;10.03;2.30;;;9.70;99.90;;;;;;5038787;28;20190;-67
2023/11/24 08:22:44;;;;;;;9.97;2.90;;;9.70;99.90;;;;;;5040506;28;20647;-66
2023/11/24 08:25:11;;;;;;;8.80;2.90;;;9.60;99.90;;;;;;5042669;28;20583;-67
2023/11/24 08:27:38;;;;;;;11.80;3.20;;;9.70;99.90;;;;;;5044081;28;20202;-66
2023/11/24 08:30:10;;;;;;;6.27;3.20;;;9.70;99.90;;;;;;5043492;28;20494;-66
2023/11/24 08:32:40;;;;;;;7.57;3.03;;;9.70;99.90;;;;;;5039221;28;20504;-66
2023/11/24 08:35:06;;;;;;;9.10;3.20;;;9.70;99.90;;;;;;5038939;28;20476;-67
2023/11/24 08:37:34;;;;;;;13.87;5.57;;;9.60;99.90;;;;;;5044445;28;20417;-67
2023/11/24 08:40:06;;;;;;;8.73;2.87;;;9.60;99.90;;;;;;5043821;28;20438;-67
2023/11/24 08:42:31;;;;;;;6.00;3.17;;;9.60;99.90;;;;;;5038902;28;20804;-66
2023/11/24 08:44:57;;;;;;;7.47;2.90;;;9.60;99.90;;;;;;5043102;28;20491;-67
2023/11/24 08:47:25;;;;;;;5.60;3.30;;;9.60;99.90;;;;;;5044764;28;20191;-66
2023/11/24 08:49:51;;;;;;;8.97;3.90;;;9.60;99.90;;;;;;5038800;28;20556;-66
2023/11/24 08:52:16;;;;;;;6.97;2.87;;;9.70;99.90;;;;;;5043905;28;20528;-65
2023/11/24 08:54:42;;;;;;;12.27;3.00;;;9.70;99.90;;;;;;5038678;28;20245;-67
2023/11/24 08:57:08;;;;;;;11.40;3.40;;;9.70;99.90;;;;;;5045198;28;20491;-65
2023/11/24 08:59:34;;;;;;;11.57;3.87;;;9.80;99.90;;;;;;5036395;28;20191;-65
2023/11/24 09:02:00;;;;;;;6.67;3.03;;;9.80;99.90;;;;;;5044196;28;20205;-65
2023/11/24 09:04:27;;;;;;;16.80;4.13;;;9.90;99.90;;;;;;5037912;28;20454;-65
2023/11/24 09:06:53;;;;;;;11.40;4.10;;;9.90;99.90;;;;;;5044639;28;20188;-65
2023/11/24 09:09:19;;;;;;;8.50;3.60;;;9.80;99.90;;;;;;5041615;28;20535;-66
2023/11/24 09:11:46;;;;;;;12.20;3.53;;;9.90;99.90;;;;;;5041774;28;20434;-66
2023/11/24 09:14:12;;;;;;;9.70;3.27;;;9.80;99.90;;;;;;5038909;28;20802;-66
2023/11/24 09:16:38;;;;;;;7.83;3.53;;;9.70;99.90;;;;;;5038129;28;20440;-66
2023/11/24 09:19:03;;;;;;;13.97;3.40;;;9.80;99.90;;;;;;5038590;28;20238;-65
2023/11/24 09:21:33;;;;;;;17.87;5.30;;;9.70;99.90;;;;;;5040566;28;20187;-66
2023/11/24 09:24:00;;;;;;;13.10;3.87;;;9.70;99.90;;;;;;5039988;28;20215;-66
2023/11/24 09:26:27;;;;;;;10.17;3.43;;;9.80;99.90;;;;;;5042735;28;20499;-65
2023/11/24 09:28:53;;;;;;;7.13;2.80;;;9.70;99.90;;;;;;5043056;28;20500;-65
2023/11/24 09:31:18;;;;;;;11.77;3.43;;;9.70;99.90;;;;;;5038448;28;20477;-66
2023/11/24 09:33:44;;;;;;;10.13;3.50;;;9.60;99.90;;;;;;5039948;28;20662;-65
2023/11/24 09:36:11;;;;;;;12.13;4.00;;;9.70;99.90;;;;;;5036262;28;20194;-65
2023/11/24 09:38:40;;;;;;;17.77;4.93;;;9.70;99.90;;;;;;5040206;28;20234;-67
2023/11/24 09:41:08;;;;;;;12.77;4.20;;;9.80;99.90;;;;;;5038667;28;20435;-66
2023/11/24 09:43:37;;;;;;;17.63;4.00;;;9.80;99.90;;;;;;5038225;28;20435;-66
2023/11/24 09:46:07;;;;;;;11.33;3.87;;;9.90;99.90;;;;;;5035519;28;20441;-66
2023/11/24 09:48:34;;;;;;;7.67;3.53;;;10.00;99.90;;;;;;5038384;28;20829;-67
2023/11/24 09:51:05;;;;;;;15.77;4.30;;;10.00;99.90;;;;;;5035615;28;20458;-66
2023/11/24 09:53:33;;;;;;;11.70;3.37;;;10.00;99.90;;;;;;5037807;28;20461;-67
2023/11/24 09:56:00;;;;;;;20.40;4.33;;;9.90;99.90;;;;;;5041809;28;20502;-66
2023/11/24 09:58:26;;;;;;;12.13;3.93;;;10.00;99.90;;;;;;5037407;28;20442;-66
2023/11/24 10:00:59;;;;;;;12.23;4.07;;;10.10;99.90;;;;;;5039506;28;20464;-66
2023/11/24 10:03:27;;;;;;;9.23;3.80;;;10.00;99.90;;;;;;5039378;28;20204;-66
2023/11/24 10:05:53;;;;;;;8.83;3.43;;;10.00;99.90;;;;;;5036390;28;20434;-66
2023/11/24 10:08:19;;;;;;;20.40;4.20;;;10.10;99.90;;;;;;5040452;28;20469;-66
2023/11/24 10:10:45;;;;;;;8.00;3.43;;;10.20;99.90;;;;;;5041420;28;20192;-68
2023/11/24 10:13:10;;;;;;;11.30;3.50;;;10.20;99.90;;;;;;5039701;28;20199;-67
2023/11/24 10:15:36;;;;;;;13.10;3.47;;;10.10;99.90;;;;;;5037143;28;20979;-66
2023/11/24 10:18:03;;;;;;;9.23;3.13;;;10.10;99.90;;;;;;5035301;28;20694;-66
2023/11/24 10:20:30;;;;;;;8.13;2.80;;;10.10;99.90;;;;;;5037477;28;20184;-66
2023/11/24 10:22:58;;;;;;;7.90;3.53;;;10.10;99.90;;;;;;5035580;28;20477;-65
2023/11/24 10:25:24;;;;;;;9.43;3.20;;;10.20;99.90;;;;;;5035440;28;20803;-66
2023/11/24 10:28:05;;;;;;;16.10;3.40;;;10.20;99.90;;;;;;5038806;28;20446;-66
2023/11/24 10:30:33;;;;;;;15.40;3.33;;;10.10;99.90;;;;;;5025468;28;20703;-66
2023/11/24 10:33:01;;;;;;;14.20;4.40;;;10.20;99.90;;;;;;5034773;28;20450;-67
2023/11/24 10:35:27;;;;;;;16.40;4.40;;;10.30;99.90;;;;;;5039069;28;21218;-67
2023/11/24 10:37:54;;;;;;;7.50;3.20;;;10.40;99.90;;;;;;5028888;28;20782;-66
2023/11/24 10:40:20;;;;;;;9.00;3.83;;;10.40;99.90;;;;;;5037173;28;20427;-66
2023/11/24 10:42:47;;;;;;;7.57;2.80;;;10.40;99.90;;;;;;5039627;28;20442;-65
2023/11/24 10:45:18;;;;;;;11.07;3.00;;;10.40;99.90;;;;;;5031415;28;20443;-65
2023/11/24 10:48:04;;;;;;;9.10;3.20;;;10.40;99.90;;;;;;5024985;28;20415;-66
2023/11/24 10:50:36;;;;;;;10.70;3.80;;;10.30;99.90;;;;;;5035077;28;20804;-66
2023/11/24 10:53:38;;;;;;;9.97;3.60;;;10.20;99.90;;;;;;5030859;28;20559;-66
2023/11/24 10:56:04;;;;;;;11.37;3.60;;;10.10;99.90;;;;;;5034777;28;20909;-67
2023/11/24 10:58:33;;;;;;;8.43;2.93;;;9.90;99.90;;;;;;5036446;28;20502;-65
2023/11/24 11:00:59;;;;;;;10.63;3.80;;;9.80;99.90;;;;;;5032512;28;20513;-65
2023/11/24 11:03:27;;;;;;;9.67;2.70;;;9.80;99.90;;;;;;5039853;28;20487;-66
2023/11/24 11:06:29;;;;;;;8.90;2.97;;;9.90;99.90;;;;;;5035775;28;20887;-67
2023/11/24 11:09:09;;;;;;;7.23;2.97;;;9.80;99.90;;;;;;5034387;28;20977;-67
2023/11/24 11:12:29;;;;;;;12.53;3.20;;;9.80;99.90;;;;;;5037304;28;20425;-66
2023/11/24 11:14:58;;;;;;;10.90;3.37;;;9.90;99.90;;;;;;5037891;28;21292;-66
2023/11/24 11:17:25;;;;;;;9.57;2.93;;;9.80;99.90;;;;;;5033196;28;20480;-67
2023/11/24 11:20:12;;;;;;;8.53;3.37;;;9.80;99.90;;;;;;5036943;28;20434;-65
2023/11/24 11:22:39;;;;;;;8.60;3.67;;;9.80;99.90;;;;;;5038077;28;20499;-66
2023/11/24 11:25:23;;;;;;;6.50;3.07;;;9.90;99.90;;;;;;5035451;28;20427;-65
2023/11/24 11:27:49;;;;;;;8.43;3.50;;;9.80;99.90;;;;;;5030619;28;20524;-66
2023/11/24 11:30:27;;;;;;;10.93;3.60;;;9.80;99.90;;;;;;5027456;28;20980;-67
2023/11/24 11:33:03;;;;;;;13.40;3.30;;;9.90;99.90;;;;;;5033667;28;20461;-67
2023/11/24 11:35:29;;;;;;;10.33;3.10;;;9.80;99.90;;;;;;5037963;28;20502;-67
2023/11/24 11:38:00;;;;;;;9.73;3.20;;;9.60;99.90;;;;;;5035171;28;20984;-67
2023/11/24 11:40:32;;;;;;;9.60;3.40;;;9.70;99.90;;;;;;5040077;28;20183;-68
2023/11/24 11:43:05;;;;;;;9.60;3.90;;;9.90;99.90;;;;;;5034252;28;20454;-67
2023/11/24 11:45:32;;;;;;;4.57;2.40;;;9.90;99.90;;;;;;5035517;28;20984;-66
2023/11/24 11:48:00;;;;;;;9.13;2.40;;;9.60;99.90;;;;;;5036878;28;20465;-66
2023/11/24 11:50:26;;;;;;;13.80;3.50;;;9.70;99.90;;;;;;5028962;28;20443;-65
2023/11/24 11:52:57;;;;;;;7.10;3.23;;;9.70;99.90;;;;;;5035838;28;20804;-66
2023/11/24 11:55:25;;;;;;;5.87;2.60;;;9.70;99.90;;;;;;5038284;28;20476;-67
2023/11/24 11:57:52;;;;;;;7.20;2.50;;;9.80;99.90;;;;;;5036547;28;20466;-67
2023/11/24 12:00:26;;;;;;;7.47;2.73;;;9.70;99.90;;;;;;5039399;28;20479;-65
2023/11/24 12:02:52;;;;;;;7.57;2.17;;;9.80;99.90;;;;;;5042351;28;20438;-66
2023/11/24 12:05:20;;;;;;;8.57;1.90;;;9.80;99.90;;;;;;5043254;28;20425;-67
2023/11/24 12:07:48;;;;;;;3.87;1.87;;;9.50;99.90;;;;;;5042678;28;20470;-67
2023/11/24 12:10:14;;;;;;;4.50;2.70;;;9.10;99.90;;;;;;5038937;28;20418;-68
2023/11/24 12:12:43;;;;;;;5.90;2.47;;;8.90;99.90;;;;;;5039524;28;20818;-68
2023/11/24 12:15:09;;;;;;;6.80;2.70;;;8.60;99.90;;;;;;5038418;28;20467;-67
2023/11/24 12:17:36;;;;;;;10.73;2.40;;;8.60;99.90;;;;;;5033071;28;20449;-67
2023/11/24 12:20:10;;;;;;;6.43;1.90;;;8.40;99.90;;;;;;5040562;28;20172;-67
2023/11/24 12:22:37;;;;;;;6.70;1.83;;;8.40;99.90;;;;;;5055416;28;20828;-67
2023/11/24 12:25:04;;;;;;;7.10;2.37;;;8.60;99.90;;;;;;5039828;28;20429;-68
2023/11/24 12:27:33;;;;;;;4.60;1.97;;;8.50;99.90;;;;;;5036271;28;20442;-67
2023/11/24 12:30:10;;;;;;;13.53;2.60;;;8.50;99.90;;;;;;5041082;28;20474;-67
2023/11/24 12:32:45;;;;;;;4.70;1.70;;;8.70;99.90;;;;;;5033918;28;20847;-67
2023/11/24 12:35:11;;;;;;;5.73;2.00;;;8.80;99.90;;;;;;5041397;28;20471;-67
2023/11/24 12:37:41;;;;;;;6.37;2.10;;;8.70;99.90;;;;;;5039607;28;20421;-67
2023/11/24 12:40:10;;;;;;;5.17;2.43;;;8.70;99.90;;;;;;5038011;28;20180;-67
2023/11/24 12:42:38;;;;;;;3.90;2.13;;;8.70;99.90;;;;;;5057450;28;20815;-67
2023/11/24 12:45:08;;;;;;;9.90;2.60;;;8.70;99.90;;;;;;5034110;28;20423;-67
2023/11/24 12:47:34;;;;;;;5.60;2.03;;;8.80;99.90;;;;;;5027470;28;20925;-68
2023/11/24 12:50:01;;;;;;;6.13;1.90;;;8.90;99.90;;;;;;5042299;28;20520;-67
2023/11/24 12:52:31;;;;;;;6.27;2.60;;;9.00;99.90;;;;;;5034935;28;20432;-67
2023/11/24 12:54:57;;;;;;;12.03;2.57;;;8.90;99.90;;;;;;5037760;28;20406;-66